Ward, Alabama
Current Conditions -  °F | °C
As of 4:15 PM on Friday 31 Oct 2014 (Local Time) from KDYA Reporting Station
Scattered Clouds Scattered Clouds  
Wind Chill: 68°   Ceiling: Unl
Heat Index: 68°   Visibility: 10mi
Dew Point: 42°   Wind: 10mph
Humidity: 39%   Direction: 310°NW
Pressure: 29.98"   Gusts: 18mph
Location:  32.36°N, 88.28°W
Report Text: KDYA 312115Z AUTO 31009G16KT 10SM SCT055 20/06 A2998 RMK AO2 T02020058
Loading
Personal Weather Stations






























Interactive Weather Map
Tropical Storm Tracking
New forecast layout! Learn more

10-Day Weather Forecast

Advertisements
Track Severe Weather on mobile